createdAt,value
2017-09-22T00:01:10.221Z,83.30
2017-09-22T00:03:41.200Z,83.40
2017-09-22T00:06:10.339Z,83.40
2017-09-22T00:08:40.281Z,83.10
2017-09-22T00:11:09.448Z,83.10
2017-09-22T00:13:39.805Z,83.20
2017-09-22T00:16:08.941Z,83.40
2017-09-22T00:18:38.275Z,83.10
2017-09-22T00:21:07.402Z,83.30
2017-09-22T00:23:36.862Z,83.40
2017-09-22T00:26:06.359Z,83.50
2017-09-22T00:28:35.535Z,83.50
2017-09-22T00:31:05.462Z,83.70
2017-09-22T00:33:35.131Z,83.60
2017-09-22T00:36:05.175Z,83.80
2017-09-22T00:38:34.436Z,83.80
2017-09-22T00:41:04.293Z,84.00
2017-09-22T00:43:34.149Z,83.90
2017-09-22T00:46:03.368Z,83.70
2017-09-22T00:48:33.690Z,84.10
2017-09-22T00:51:03.783Z,84.30
2017-09-22T00:53:33.967Z,84.40
2017-09-22T00:56:03.317Z,84.40
2017-09-22T00:58:33.924Z,84.40
2017-09-22T01:01:03.200Z,84.60
2017-09-22T01:03:36.020Z,84.30
2017-09-22T01:06:05.253Z,84.20
2017-09-22T01:08:34.557Z,83.70
2017-09-22T01:11:04.835Z,84.20
2017-09-22T01:13:34.022Z,84.10
2017-09-22T01:16:03.250Z,84.20
2017-09-22T01:18:32.826Z,84.30
2017-09-22T01:21:02.020Z,84.40
2017-09-22T01:23:31.225Z,84.30
2017-09-22T01:26:00.545Z,84.50
2017-09-22T01:28:29.741Z,84.90
2017-09-22T01:30:58.890Z,84.90
2017-09-22T01:33:28.048Z,85.00
2017-09-22T01:35:57.226Z,84.80
2017-09-22T01:38:26.404Z,84.90
2017-09-22T01:40:55.837Z,84.80
2017-09-22T01:43:24.940Z,84.50
2017-09-22T01:45:54.064Z,84.40
2017-09-22T01:48:23.361Z,84.40
2017-09-22T01:50:52.478Z,84.90
2017-09-22T01:53:22.396Z,85.20
2017-09-22T01:55:51.579Z,85.20
2017-09-22T01:58:21.843Z,84.80
2017-09-22T02:00:51.008Z,85.10
2017-09-22T02:03:21.026Z,85.10
2017-09-22T02:05:50.110Z,85.20
2017-09-22T02:08:19.257Z,85.40
2017-09-22T02:10:48.403Z,86.10
2017-09-22T02:13:17.530Z,85.50
2017-09-22T02:15:46.649Z,85.30
2017-09-22T02:18:16.871Z,85.20
2017-09-22T02:20:46.017Z,85.20
2017-09-22T02:23:15.153Z,85.10
2017-09-22T02:25:44.312Z,85.50
2017-09-22T02:28:13.405Z,84.80
2017-09-22T02:30:42.507Z,85.20
2017-09-22T02:33:11.883Z,84.60
2017-09-22T02:35:42.161Z,84.70
2017-09-22T02:38:12.325Z,85.00
2017-09-22T02:40:41.459Z,85.00
2017-09-22T02:43:10.565Z,85.20
2017-09-22T02:45:39.894Z,85.10
2017-09-22T02:48:09.014Z,84.90
2017-09-22T02:50:38.262Z,85.10
2017-09-22T02:53:08.594Z,85.50
2017-09-22T02:55:38.071Z,84.80
2017-09-22T02:58:07.344Z,84.70
2017-09-22T03:00:37.974Z,85.00
2017-09-22T03:03:07.865Z,85.20
2017-09-22T03:05:37.783Z,85.50
2017-09-22T03:08:07.418Z,85.40
2017-09-22T03:10:36.558Z,85.40
2017-09-22T03:13:05.739Z,85.80
2017-09-22T03:15:35.124Z,85.90
2017-09-22T03:18:04.259Z,86.00
2017-09-22T03:20:33.430Z,86.40
2017-09-22T03:23:05.073Z,86.40
2017-09-22T03:25:34.215Z,86.50
2017-09-22T03:28:03.351Z,86.70
2017-09-22T03:30:32.553Z,86.90
2017-09-22T03:33:01.728Z,87.00
2017-09-22T03:35:31.697Z,87.00
2017-09-22T03:38:01.128Z,86.90
2017-09-22T03:40:31.085Z,87.00
2017-09-22T03:43:00.267Z,87.00
2017-09-22T03:45:29.747Z,87.20
2017-09-22T03:47:58.892Z,87.10
2017-09-22T03:50:28.804Z,87.20
2017-09-22T03:52:58.164Z,87.20
2017-09-22T03:55:28.052Z,87.10
2017-09-22T03:57:57.186Z,87.10
2017-09-22T04:00:26.486Z,87.00
2017-09-22T04:02:55.594Z,86.90
2017-09-22T04:05:24.697Z,86.90
2017-09-22T04:07:54.772Z,86.80
2017-09-22T04:10:23.883Z,86.80
2017-09-22T04:12:54.030Z,87.10
2017-09-22T04:15:23.348Z,87.00
2017-09-22T04:17:52.480Z,86.70
2017-09-22T04:20:21.592Z,86.40
2017-09-22T04:22:51.098Z,86.20
2017-09-22T04:25:20.216Z,86.20
2017-09-22T04:27:49.373Z,86.40
2017-09-22T04:30:19.463Z,87.30
2017-09-22T04:32:48.551Z,86.80
2017-09-22T04:35:17.694Z,87.30
2017-09-22T04:37:47.160Z,88.60
2017-09-22T04:40:16.286Z,88.90
2017-09-22T04:42:45.401Z,89.00
2017-09-22T04:45:15.366Z,88.80
2017-09-22T04:47:45.229Z,89.00
2017-09-22T04:50:14.410Z,89.00
2017-09-22T04:52:43.755Z,89.10
2017-09-22T04:55:13.645Z,89.20
2017-09-22T04:57:42.790Z,89.10
2017-09-22T05:00:12.343Z,90.00
2017-09-22T05:02:43.178Z,89.70
2017-09-22T05:05:12.789Z,89.70
2017-09-22T05:07:41.933Z,89.70
2017-09-22T05:10:11.806Z,90.00
2017-09-22T05:12:40.901Z,90.00
2017-09-22T05:15:10.510Z,90.20
2017-09-22T05:17:39.645Z,90.30
2017-09-22T05:20:08.797Z,90.30
2017-09-22T05:22:38.063Z,90.30
2017-09-22T05:25:07.217Z,90.30
2017-09-22T05:27:37.120Z,90.50
2017-09-22T05:30:06.506Z,90.50
2017-09-22T05:32:35.658Z,90.60
2017-09-22T05:35:04.864Z,90.70
2017-09-22T05:37:34.159Z,90.60
2017-09-22T05:40:03.390Z,90.60
2017-09-22T05:42:32.584Z,90.70
2017-09-22T05:45:03.036Z,90.70
2017-09-22T05:47:32.226Z,90.50
2017-09-22T05:50:01.404Z,90.50
2017-09-22T05:52:31.743Z,90.20
2017-09-22T05:55:00.928Z,90.20
2017-09-22T05:57:30.151Z,90.10
2017-09-22T05:59:59.528Z,89.60
2017-09-22T06:02:28.634Z,89.30
2017-09-22T06:04:57.774Z,88.90
2017-09-22T06:07:27.209Z,89.50
2017-09-22T06:09:56.384Z,89.60
2017-09-22T06:12:25.510Z,89.70
2017-09-22T06:14:54.985Z,89.50
2017-09-22T06:17:24.090Z,89.80
2017-09-22T06:19:53.188Z,90.00
2017-09-22T06:22:22.704Z,90.10
2017-09-22T06:24:54.028Z,90.00
2017-09-22T06:27:23.473Z,89.80
2017-09-22T06:29:52.575Z,89.90
2017-09-22T06:32:21.775Z,90.00
2017-09-22T06:34:51.162Z,90.00
2017-09-22T06:37:20.324Z,90.00
2017-09-22T06:39:49.450Z,90.00
2017-09-22T06:42:19.542Z,90.30
2017-09-22T06:44:48.767Z,90.30
2017-09-22T06:47:17.982Z,90.10
2017-09-22T06:49:47.549Z,90.10
2017-09-22T06:52:16.723Z,89.20
2017-09-22T06:54:46.122Z,88.90
2017-09-22T06:57:15.678Z,88.50
2017-09-22T06:59:45.586Z,87.30
2017-09-22T07:02:15.529Z,87.00
2017-09-22T07:04:44.753Z,87.00
2017-09-22T07:07:14.054Z,86.60
2017-09-22T07:09:43.186Z,87.00
2017-09-22T07:12:12.606Z,87.30
2017-09-22T07:14:42.485Z,87.00
2017-09-22T07:17:11.647Z,86.90
2017-09-22T07:19:41.062Z,86.80
2017-09-22T07:22:11.033Z,86.50
2017-09-22T07:24:40.238Z,86.50
2017-09-22T07:27:09.714Z,86.20
2017-09-22T07:29:38.970Z,85.80
2017-09-22T07:32:09.349Z,86.10
2017-09-22T07:34:41.002Z,85.60
2017-09-22T07:37:10.170Z,85.50
2017-09-22T07:39:40.095Z,85.10
2017-09-22T07:42:09.386Z,85.00
2017-09-22T07:44:38.605Z,84.30
2017-09-22T07:47:07.832Z,84.40
2017-09-22T07:49:37.519Z,84.00
2017-09-22T07:52:06.709Z,84.70
2017-09-22T07:54:37.077Z,84.80
2017-09-22T07:57:06.425Z,84.70
2017-09-22T07:59:36.751Z,84.60
2017-09-22T08:02:05.963Z,84.30
2017-09-22T08:04:35.281Z,85.00
2017-09-22T08:07:04.624Z,84.80
2017-09-22T08:09:33.815Z,84.30
2017-09-22T08:12:03.077Z,84.40
2017-09-22T08:14:33.244Z,84.00
2017-09-22T08:17:02.480Z,83.70
2017-09-22T08:19:32.411Z,82.80
2017-09-22T08:22:01.685Z,82.20
2017-09-22T08:24:32.022Z,81.80
2017-09-22T08:27:01.543Z,82.40
2017-09-22T08:29:31.551Z,81.00
2017-09-22T08:32:00.779Z,81.00
2017-09-22T08:34:30.758Z,79.80
2017-09-22T08:37:00.191Z,79.80
2017-09-22T08:39:29.381Z,79.70
2017-09-22T08:41:59.915Z,79.40
2017-09-22T08:44:29.210Z,78.50
2017-09-22T08:46:58.381Z,77.70
2017-09-22T08:49:27.832Z,76.30
2017-09-22T08:51:57.718Z,70.40
2017-09-22T08:54:27.654Z,68.20
2017-09-22T08:56:57.159Z,68.10
2017-09-22T08:59:27.059Z,67.80
2017-09-22T09:01:56.304Z,66.10
2017-09-22T09:04:27.412Z,64.90
2017-09-22T09:06:57.388Z,64.70
2017-09-22T09:09:26.540Z,64.50
2017-09-22T09:11:55.810Z,63.90
2017-09-22T09:14:25.078Z,64.20
2017-09-22T09:16:56.355Z,63.40
2017-09-22T09:19:26.079Z,62.40
2017-09-22T09:22:01.735Z,63.00
2017-09-22T09:24:31.196Z,63.00
2017-09-22T09:27:01.190Z,61.80
2017-09-22T09:29:32.134Z,61.80
2017-09-22T09:32:02.222Z,58.90
2017-09-22T09:34:31.427Z,57.50
2017-09-22T09:37:00.666Z,56.80
2017-09-22T09:39:29.815Z,55.60
2017-09-22T09:42:00.026Z,55.20
2017-09-22T09:44:29.947Z,54.40
2017-09-22T09:46:59.097Z,54.30
2017-09-22T09:49:29.333Z,54.60
2017-09-22T09:51:58.455Z,55.40
2017-09-22T09:54:27.590Z,55.30
2017-09-22T09:56:56.909Z,55.80
2017-09-22T09:59:29.937Z,56.90
2017-09-22T10:01:59.996Z,56.90
2017-09-22T10:04:30.779Z,55.90
2017-09-22T10:07:01.125Z,54.70
2017-09-22T10:09:34.344Z,54.70
2017-09-22T10:12:04.625Z,54.70
2017-09-22T10:14:37.848Z,54.60
2017-09-22T10:17:07.377Z,54.60
2017-09-22T10:19:37.195Z,55.30
2017-09-22T10:22:07.104Z,56.20
2017-09-22T10:24:38.107Z,56.90
2017-09-22T10:27:07.355Z,56.90
2017-09-22T10:29:36.542Z,56.00
2017-09-22T10:32:06.735Z,56.00
2017-09-22T10:34:35.943Z,56.40
2017-09-22T10:37:05.197Z,55.70
2017-09-22T10:39:34.495Z,54.40
2017-09-22T10:42:03.699Z,52.90
2017-09-22T10:44:33.715Z,51.00
2017-09-22T10:47:03.957Z,51.00
2017-09-22T10:49:33.176Z,50.90
2017-09-22T10:52:02.353Z,50.70
2017-09-22T10:54:32.002Z,52.00
2017-09-22T10:57:01.641Z,52.20
2017-09-22T10:59:30.765Z,51.80
2017-09-22T11:02:00.356Z,52.40
2017-09-22T11:04:31.340Z,51.80
2017-09-22T11:07:00.584Z,51.70
2017-09-22T11:09:30.002Z,52.50
2017-09-22T11:11:59.130Z,53.10
2017-09-22T11:14:28.281Z,56.00
2017-09-22T11:16:58.342Z,57.20
2017-09-22T11:19:27.487Z,58.10
2017-09-22T11:21:56.606Z,58.60
2017-09-22T11:24:26.055Z,60.70
2017-09-22T11:26:55.141Z,61.90
2017-09-22T11:29:24.243Z,62.00
2017-09-22T11:31:53.013Z,63.70
2017-09-22T11:34:22.152Z,65.20
2017-09-22T11:36:51.260Z,66.70
2017-09-22T11:39:21.447Z,64.40
2017-09-22T11:41:50.542Z,64.70
2017-09-22T11:44:19.656Z,65.00
2017-09-22T11:46:49.038Z,62.60
2017-09-22T11:49:18.139Z,63.40
2017-09-22T11:51:47.259Z,64.40
2017-09-22T11:54:16.534Z,64.40
2017-09-22T11:56:45.631Z,65.20
2017-09-22T11:59:15.412Z,66.40
2017-09-22T12:01:45.534Z,67.20
2017-09-22T12:04:15.326Z,67.40
2017-09-22T12:06:44.474Z,68.80
2017-09-22T12:09:14.943Z,69.80
2017-09-22T12:11:44.043Z,69.60
2017-09-22T12:14:13.188Z,70.30
2017-09-22T12:16:43.089Z,70.10
2017-09-22T12:19:12.202Z,69.70
2017-09-22T12:21:41.296Z,68.90
2017-09-22T12:24:11.299Z,68.40
2017-09-22T12:26:40.458Z,67.80
2017-09-22T12:29:09.607Z,66.50
2017-09-22T12:31:39.174Z,65.10
2017-09-22T12:34:10.089Z,65.00
2017-09-22T12:36:39.312Z,64.30
2017-09-22T12:39:08.812Z,63.70
2017-09-22T12:41:38.726Z,63.80
2017-09-22T12:44:07.925Z,63.70
2017-09-22T12:46:37.532Z,63.50
2017-09-22T12:49:06.756Z,62.70
2017-09-22T12:51:36.797Z,62.00
2017-09-22T12:54:06.034Z,61.90
2017-09-22T12:56:39.019Z,60.00
2017-09-22T12:59:08.596Z,58.40
2017-09-22T13:01:38.536Z,58.40
2017-09-22T13:04:07.857Z,58.10
2017-09-22T13:06:37.295Z,57.50
2017-09-22T13:09:07.474Z,57.70
2017-09-22T13:11:36.775Z,57.60
2017-09-22T13:14:07.197Z,59.50
2017-09-22T13:16:37.455Z,59.70
2017-09-22T13:19:07.754Z,59.50
2017-09-22T13:21:40.460Z,59.50
2017-09-22T13:24:10.348Z,58.20
2017-09-22T13:26:41.671Z,57.70
2017-09-22T13:29:10.847Z,56.90
2017-09-22T13:31:40.075Z,55.80
2017-09-22T13:34:10.905Z,57.00
2017-09-22T13:36:40.113Z,57.10
2017-09-22T13:39:09.305Z,59.00
2017-09-22T13:41:38.727Z,60.50
2017-09-22T13:44:08.095Z,63.00
2017-09-22T13:46:37.392Z,64.20
2017-09-22T13:49:07.002Z,64.40
2017-09-22T13:51:36.963Z,64.70
2017-09-22T13:54:07.287Z,64.70
2017-09-22T13:56:36.685Z,64.60
2017-09-22T13:59:06.105Z,64.90
2017-09-22T14:01:35.784Z,64.80
2017-09-22T14:04:05.380Z,65.40
2017-09-22T14:06:35.629Z,65.40
2017-09-22T14:09:05.211Z,65.40
2017-09-22T14:11:34.449Z,65.20
2017-09-22T14:14:05.335Z,66.10
2017-09-22T14:16:34.839Z,66.70
2017-09-22T14:19:03.980Z,65.50
2017-09-22T14:21:33.255Z,65.50
2017-09-22T14:24:03.733Z,65.30
2017-09-22T14:26:34.356Z,63.60
2017-09-22T14:29:04.699Z,63.60
2017-09-22T14:31:34.817Z,65.00
2017-09-22T14:34:04.012Z,65.00
2017-09-22T14:36:34.381Z,65.60
2017-09-22T14:39:03.885Z,65.00
2017-09-22T14:41:33.091Z,64.70
2017-09-22T14:44:02.362Z,65.60
2017-09-22T14:46:34.182Z,66.70
2017-09-22T14:49:05.766Z,67.50
2017-09-22T14:51:39.247Z,67.30
2017-09-22T14:54:09.159Z,67.20
2017-09-22T14:56:38.315Z,67.70
2017-09-22T14:59:07.869Z,67.70
2017-09-22T15:01:37.055Z,66.70
2017-09-22T15:04:07.009Z,66.20
2017-09-22T15:06:36.547Z,66.20
2017-09-22T15:09:05.742Z,66.40
2017-09-22T15:11:34.951Z,66.50
2017-09-22T15:14:04.555Z,68.10
2017-09-22T15:16:34.666Z,69.20
2017-09-22T15:19:03.863Z,68.50
2017-09-22T15:21:34.193Z,68.90
2017-09-22T15:24:03.380Z,68.90
2017-09-22T15:26:32.550Z,69.50
2017-09-22T15:29:01.850Z,69.60
2017-09-22T15:31:31.939Z,70.20
2017-09-22T15:34:01.085Z,70.10
2017-09-22T15:36:30.413Z,69.20
2017-09-22T15:38:59.613Z,69.20
2017-09-22T15:41:28.734Z,69.60
2017-09-22T15:43:58.249Z,70.20
2017-09-22T15:46:27.508Z,70.50
2017-09-22T15:49:00.548Z,70.50
2017-09-22T15:51:48.157Z,70.60
2017-09-22T15:54:19.959Z,70.80
2017-09-22T15:56:49.254Z,71.20
2017-09-22T15:59:18.947Z,71.80
2017-09-22T16:01:48.045Z,72.10
2017-09-22T16:04:17.980Z,69.60
2017-09-22T16:06:47.139Z,69.60
2017-09-22T16:09:16.232Z,68.80
2017-09-22T16:11:45.559Z,69.10
2017-09-22T16:14:14.684Z,68.50
2017-09-22T16:16:43.798Z,68.70
2017-09-22T16:19:14.103Z,69.10
2017-09-22T16:21:43.202Z,69.50
2017-09-22T16:24:12.352Z,70.00
2017-09-22T16:26:42.367Z,70.50
2017-09-22T16:29:11.591Z,71.00
2017-09-22T16:31:41.577Z,70.80
2017-09-22T16:34:11.089Z,71.10
2017-09-22T16:36:40.359Z,71.70
2017-09-22T16:39:09.608Z,71.70
2017-09-22T16:41:39.012Z,71.80
2017-09-22T16:44:08.214Z,71.90
2017-09-22T16:46:37.550Z,72.30
2017-09-22T16:49:07.105Z,72.50
2017-09-22T16:51:36.431Z,72.90
2017-09-22T16:54:07.179Z,72.50
2017-09-22T16:56:39.121Z,72.40
2017-09-22T16:59:08.478Z,72.30
2017-09-22T17:01:37.612Z,72.70
2017-09-22T17:04:08.570Z,73.30
2017-09-22T17:06:37.838Z,73.30
2017-09-22T17:09:07.768Z,73.70
2017-09-22T17:11:37.845Z,73.70
2017-09-22T17:14:07.317Z,73.90
2017-09-22T17:16:37.492Z,74.10
2017-09-22T17:19:07.975Z,74.00
2017-09-22T17:21:37.273Z,74.40
2017-09-22T17:24:06.504Z,74.80
2017-09-22T17:26:35.717Z,74.80
2017-09-22T17:29:04.867Z,74.80
2017-09-22T17:31:35.113Z,75.20
2017-09-22T17:34:04.424Z,75.10
2017-09-22T17:36:33.719Z,75.30
2017-09-22T17:39:03.094Z,75.40
2017-09-22T17:41:32.610Z,75.90
2017-09-22T17:44:02.080Z,76.00
2017-09-22T17:46:31.648Z,76.40
2017-09-22T17:49:01.377Z,76.70
2017-09-22T17:51:31.597Z,76.80
2017-09-22T17:54:01.136Z,77.60
2017-09-22T17:56:32.290Z,78.20
2017-09-22T17:59:03.387Z,78.70
2017-09-22T18:01:32.827Z,78.80
2017-09-22T18:04:02.513Z,79.30
2017-09-22T18:06:31.765Z,79.40
2017-09-22T18:09:01.159Z,79.60
2017-09-22T18:11:30.848Z,79.90
2017-09-22T18:14:00.086Z,80.10
2017-09-22T18:16:29.266Z,79.60
2017-09-22T18:18:59.762Z,79.50
2017-09-22T18:21:28.985Z,79.90
2017-09-22T18:23:58.142Z,79.60
2017-09-22T18:26:28.075Z,79.10
2017-09-22T18:28:57.198Z,79.00
2017-09-22T18:31:26.298Z,79.60
2017-09-22T18:33:55.542Z,79.70
2017-09-22T18:36:25.001Z,80.10
2017-09-22T18:38:54.106Z,80.00
2017-09-22T18:41:23.543Z,79.50
2017-09-22T18:43:53.518Z,79.90
2017-09-22T18:46:22.680Z,79.90
2017-09-22T18:48:52.043Z,79.70
2017-09-22T18:51:21.238Z,79.90
2017-09-22T18:53:50.443Z,79.70
2017-09-22T18:56:19.876Z,79.30
2017-09-22T18:58:49.805Z,79.20
2017-09-22T19:01:18.936Z,79.20
2017-09-22T19:03:49.223Z,79.30
2017-09-22T19:06:18.348Z,78.80
2017-09-22T19:08:48.239Z,78.40
2017-09-22T19:11:17.714Z,78.30
2017-09-22T19:13:47.587Z,78.30
2017-09-22T19:16:17.904Z,78.40
2017-09-22T19:18:47.518Z,78.60
2017-09-22T19:21:16.634Z,78.30
2017-09-22T19:23:45.729Z,78.60
2017-09-22T19:26:15.560Z,78.80
2017-09-22T19:28:45.811Z,79.20
2017-09-22T19:31:14.975Z,79.00
2017-09-22T19:33:45.075Z,79.50
2017-09-22T19:36:14.969Z,79.80
2017-09-22T19:38:44.140Z,79.70
2017-09-22T19:41:13.544Z,79.90
2017-09-22T19:43:43.486Z,80.20
2017-09-22T19:46:13.245Z,80.20
2017-09-22T19:48:44.045Z,80.00
2017-09-22T19:51:13.179Z,80.10
2017-09-22T19:53:42.268Z,79.80
2017-09-22T19:56:11.768Z,79.80
2017-09-22T19:58:41.023Z,79.90
2017-09-22T20:01:10.164Z,80.20
2017-09-22T20:03:39.664Z,80.40
2017-09-22T20:06:09.601Z,80.60
2017-09-22T20:08:39.166Z,80.60
2017-09-22T20:11:09.077Z,80.70
2017-09-22T20:13:38.568Z,80.70
2017-09-22T20:16:07.719Z,80.30
2017-09-22T20:18:36.887Z,80.70
2017-09-22T20:21:06.397Z,80.30
2017-09-22T20:23:36.422Z,79.90
2017-09-22T20:26:05.638Z,79.90
2017-09-22T20:28:36.207Z,80.00
2017-09-22T20:31:05.338Z,80.30
2017-09-22T20:33:34.566Z,80.50
2017-09-22T20:36:04.169Z,80.80
2017-09-22T20:38:33.340Z,80.60
2017-09-22T20:41:04.333Z,80.60
2017-09-22T20:43:34.939Z,80.50
2017-09-22T20:46:04.153Z,80.50
2017-09-22T20:48:34.133Z,80.60
2017-09-22T20:51:03.685Z,80.60
2017-09-22T20:53:33.167Z,81.10
2017-09-22T20:56:02.492Z,81.00
2017-09-22T20:58:32.014Z,81.10
2017-09-22T21:01:02.066Z,80.90
2017-09-22T21:03:32.719Z,80.90
2017-09-22T21:06:02.485Z,80.90
2017-09-22T21:08:32.635Z,80.70
2017-09-22T21:11:03.230Z,80.90
2017-09-22T21:13:32.504Z,80.80
2017-09-22T21:16:01.779Z,81.20
2017-09-22T21:18:31.393Z,81.30
2017-09-22T21:21:02.735Z,81.00
2017-09-22T21:23:31.977Z,81.00
2017-09-22T21:26:01.654Z,80.80
2017-09-22T21:28:30.840Z,81.00
2017-09-22T21:31:00.449Z,81.60
2017-09-22T21:33:30.259Z,82.20
2017-09-22T21:36:01.078Z,82.50
2017-09-22T21:38:30.814Z,83.00
2017-09-22T21:41:00.479Z,83.00
2017-09-22T21:43:30.099Z,83.20
2017-09-22T21:46:00.856Z,83.80
2017-09-22T21:48:30.917Z,83.70
2017-09-22T21:51:00.934Z,83.50
2017-09-22T21:53:31.950Z,83.70
2017-09-22T21:56:01.245Z,83.70
2017-09-22T21:58:33.279Z,84.60
2017-09-22T22:01:04.162Z,85.10
2017-09-22T22:06:45.512Z,85.50
2017-09-22T22:09:15.392Z,85.50
2017-09-22T22:11:44.565Z,85.60
2017-09-22T22:14:13.898Z,85.90
2017-09-22T22:16:43.135Z,86.20
2017-09-22T22:19:12.318Z,86.30
2017-09-22T22:21:41.843Z,86.40
2017-09-22T22:24:11.013Z,86.50
2017-09-22T22:26:40.374Z,86.70
2017-09-22T22:29:10.439Z,86.30
2017-09-22T22:31:39.607Z,86.30
2017-09-22T22:34:08.788Z,86.20
2017-09-22T22:36:38.498Z,86.20
2017-09-22T22:39:07.724Z,86.20
2017-09-22T22:41:36.975Z,85.90
2017-09-22T22:44:06.493Z,86.00
2017-09-22T22:46:36.510Z,85.70
2017-09-22T22:49:14.038Z,85.70
2017-09-22T22:51:44.862Z,85.70
2017-09-22T22:54:14.375Z,85.70
2017-09-22T22:56:44.298Z,85.40
2017-09-22T22:59:13.482Z,85.40
2017-09-22T23:01:43.475Z,85.40
2017-09-22T23:04:12.684Z,85.30
2017-09-22T23:06:42.744Z,85.00
2017-09-22T23:09:12.847Z,85.30
2017-09-22T23:11:42.788Z,85.50
2017-09-22T23:14:12.140Z,85.50
2017-09-22T23:16:42.211Z,85.80
2017-09-22T23:19:11.397Z,85.80
2017-09-22T23:21:41.455Z,86.50
2017-09-22T23:24:10.827Z,86.00
2017-09-22T23:26:40.048Z,86.10
2017-09-22T23:29:09.253Z,86.30
2017-09-22T23:31:38.547Z,86.30
2017-09-22T23:34:08.985Z,86.40
2017-09-22T23:36:38.150Z,85.80
2017-09-22T23:39:08.232Z,86.00
2017-09-22T23:41:37.391Z,86.00
2017-09-22T23:44:06.549Z,86.00
2017-09-22T23:46:36.169Z,86.20
2017-09-22T23:49:05.471Z,85.90
2017-09-22T23:51:34.680Z,85.90
2017-09-22T23:54:04.713Z,86.20
2017-09-22T23:56:34.931Z,86.20
2017-09-22T23:59:04.214Z,85.90
